Home > Products > Valid Products > TAF

000
FTUS42 KCHS 212300
TAFCHS
TAF
KCHS 212332Z 2200/2224 07007KT P6SM SKC
     FM221200 06009KT P6SM SCT015
     FM222000 10010G15KT P6SM SCT025 SCT060=



000
FTUS42 KCHS 212300
TAFSAV
TAF
KSAV 212332Z 2200/2224 07007KT P6SM SKC
     FM221200 05008KT P6SM SCT020 SCT060
     FM221900 09010G15KT P6SM SCT020 BKN050=



000
FTUS42 KCHS 211700
TAFCHS
TAF
KCHS 211739Z 2118/2218 05010KT P6SM SKC
     FM220000 06007KT P6SM SKC=



000
FTUS42 KCHS 211700
TAFSAV
TAF
KSAV 211739Z 2118/2218 04007KT P6SM SKC
     FM221000 05008KT P6SM SCT020=



000
FTUS42 KCHS 211100
TAFSAV
TAF
KSAV 211122Z 2112/2212 VRB03KT P6SM SKC
     FM211400 04008KT P6SM SKC
     FM220900 03006KT P6SM SCT012=



000
FTUS42 KCHS 211100
TAFCHS
TAF
KCHS 211122Z 2112/2212 32004KT P6SM SKC
     FM211400 03006KT P6SM SKC
     FM221000 02005KT P6SM FEW020=



000
FTUS42 KCHS 210500
TAFCHS
TAF
KCHS 210520Z 2106/2206 32004KT P6SM SCT250
     FM211400 04009KT P6SM SKC=



000
FTUS42 KCHS 210500
TAFSAV
TAF
KSAV 210520Z 2106/2206 VRB03KT P6SM FEW250
     FM211400 04008KT P6SM SKC=



000
FTUS42 KCHS 202300
TAFCHS
TAF
KCHS 202324Z 2100/2124 VRB04KT P6SM SCT250
     FM211400 04009KT P6SM FEW250=



000
FTUS42 KCHS 202300
TAFSAV
TAF
KSAV 202324Z 2100/2124 VRB03KT P6SM FEW250
     FM211400 04008KT P6SM FEW250=



000
FTUS42 KCHS 201700
TAFCHS
TAF
KCHS 201732Z 2018/2118 23009KT P6SM FEW250
     FM210000 25003KT P6SM FEW250
     FM211400 01008KT P6SM FEW250=



000
FTUS42 KCHS 201700
TAFSAV
TAF
KSAV 201732Z 2018/2118 23007KT P6SM FEW250
     FM210000 VRB03KT P6SM FEW250
     FM211400 01007KT P6SM SCT250=



000
FTUS42 KCHS 201100
TAFCHS
TAF
KCHS 201120Z 2012/2112 26008KT P6SM SKC
     FM202300 VRB03KT P6SM FEW250=



000
FTUS42 KCHS 201100
TAFSAV
TAF
KSAV 201120Z 2012/2112 00000KT P6SM SKC
     FM201400 25007KT P6SM SKC
     FM202300 VRB03KT P6SM SKC=



000
FTUS42 KCHS 200500
TAFCHS
TAF
KCHS 200522Z 2006/2106 00000KT P6SM SKC
     FM201400 26008KT P6SM SKC
     FM202300 VRB03KT P6SM FEW250=



000
FTUS42 KCHS 200500
TAFSAV
TAF
KSAV 200522Z 2006/2106 00000KT P6SM SKC
     FM201400 25007KT P6SM SKC
     FM202300 VRB03KT P6SM SKC=



000
FTUS42 KCHS 192300
TAFCHS
TAF
KCHS 192328Z 2000/2024 VRB03KT P6SM SCT250
     FM201400 28008KT P6SM SCT250
     FM202100 24008KT P6SM SCT250=



000
FTUS42 KCHS 192300
TAFSAV
TAF
KSAV 192328Z 2000/2024 VRB03KT P6SM SKC
     FM201400 28007KT P6SM SCT250
     FM202100 25008KT P6SM SCT250=



000
FTUS42 KCHS 191700
TAFSAV
TAF
KSAV 191720Z 1918/2018 VRB03KT P6SM SKC
     FM201400 28006KT P6SM FEW250=



000
FTUS42 KCHS 191700
TAFCHS
TAF
KCHS 191720Z 1918/2018 VRB03KT P6SM SKC
     FM201400 28008KT P6SM FEW250=



000
FTUS42 KCHS 191100
TAFSAV
TAF
KSAV 191120Z 1912/2012 VRB03KT P6SM SKC=



000
FTUS42 KCHS 191100
TAFCHS
TAF
KCHS 191120Z 1912/2012 VRB03KT P6SM SKC=



000
FTUS42 KCHS 190500
TAFCHS
TAF
KCHS 190520Z 1906/2006 VRB03KT P6SM SKC=



000
FTUS42 KCHS 190500
TAFSAV
TAF
KSAV 190520Z 1906/2006 VRB03KT P6SM SKC=



000
FTUS42 KCHS 190200 AAA
TAFCHS
TAF AMD
KCHS 190224Z 1902/1924 VRB04KT P6SM SKC=



000
FTUS42 KCHS 190200 AAA
TAFSAV
TAF AMD
KSAV 190224Z 1902/1924 VRB04KT P6SM SKC=



    US Dept of Commerce
    National Oceanic and Atmospheric Administration
    National Weather Service
    1325 East West Highway
    Silver Spring, MD 20910
    Page Author: NWS Internet Services Team
Disclaimer
Information Quality
Credits
Glossary
Privacy Policy
Freedom of Information Act (FOIA)
About Us
Career Opportunities